Terminal Aerodrome Forecast
Issued by NWS Oklahoma City, OK

Home | Current Version | Previous Version | Text Only | Print | Product List | Glossary On
Versions: 1 2 3 4 5 6 7 8 9 10 11 12 13 14 15 16 17 18 19 20 21 22 23 24 25 26 27 28 29 30 31 32 33 34 35 36
862
FTUS44 KOUN 241139
TAFOUN
TAF
KOUN 241139Z 2412/2512 36004KT 2SM -DZ BR OVC003
      TEMPO 2412/2414 1/2SM DZ FG VV002
     FM241400 34006KT 3SM -TSRA BR OVC008CB
     FM241700 29010KT P6SM BKN015
     FM242300 34009KT P6SM SCT250=

USA.gov is the U.S. government's official web portal to all federal, state and local government web resources and services.